Time;durP1;ratioP1;P1;durP2;ratioP2;P2;SDS_P1;SDS_P2;PMS_P1;PMS_P2;Temp;Humidity;BMP_temperature;BMP_pressure;BME280_temperature;BME280_humidity;BME280_pressure;Samples;Min_cycle;Max_cycle;Signal;HPM_P1;HPM_P2
2023/01/30 00:01:26;;;;;;;24.95;11.85;;;6.30;99.90;;;;;;5052630;28;20047;-73
2023/01/30 00:03:52;;;;;;;18.55;10.05;;;6.30;99.90;;;;;;5052615;28;20025;-73
2023/01/30 00:06:18;;;;;;;16.48;10.35;;;6.30;99.90;;;;;;5052602;28;20025;-73
2023/01/30 00:08:44;;;;;;;26.75;12.48;;;6.30;99.90;;;;;;5052176;28;20079;-73
2023/01/30 00:11:12;;;;;;;33.47;16.05;;;6.30;99.90;;;;;;5052676;28;20029;-73
2023/01/30 00:13:38;;;;;;;7.68;3.83;;;6.40;99.90;;;;;;5052496;28;20485;-73
2023/01/30 00:16:05;;;;;;;27.15;11.07;;;6.40;99.90;;;;;;5052471;28;20027;-73
2023/01/30 00:18:30;;;;;;;4.57;3.47;;;6.40;99.90;;;;;;5052702;28;20418;-73
2023/01/30 00:21:02;;;;;;;13.07;8.43;;;6.50;99.90;;;;;;5052303;28;20063;-73
2023/01/30 00:23:29;;;;;;;7.60;4.18;;;6.50;99.90;;;;;;5052400;28;20120;-73
2023/01/30 00:25:55;;;;;;;4.47;2.72;;;6.50;99.90;;;;;;5052420;28;20373;-73
2023/01/30 00:28:22;;;;;;;9.60;3.53;;;6.50;99.90;;;;;;5051348;28;20029;-73
2023/01/30 00:30:50;;;;;;;12.90;5.85;;;6.50;99.90;;;;;;5051147;28;20021;-73
2023/01/30 00:33:16;;;;;;;17.17;9.13;;;6.60;99.90;;;;;;5052489;28;20033;-73
2023/01/30 00:35:44;;;;;;;18.17;5.68;;;6.60;99.90;;;;;;5034636;28;20017;-73
2023/01/30 00:38:10;;;;;;;7.60;4.90;;;6.50;99.90;;;;;;5050486;28;20048;-73
2023/01/30 00:40:36;;;;;;;8.23;5.68;;;6.50;99.90;;;;;;5051267;28;20021;-73
2023/01/30 00:48:31;;;;;;;21.23;9.88;;;6.70;99.90;;;;;;5037604;28;20167;-73
2023/01/30 00:50:57;;;;;;;19.38;10.02;;;6.60;99.90;;;;;;5052578;28;20108;-73
2023/01/30 00:53:23;;;;;;;21.02;8.82;;;6.60;99.90;;;;;;5053146;28;20465;-72
2023/01/30 00:55:53;;;;;;;10.02;6.55;;;6.60;99.90;;;;;;5054925;28;20028;-72
2023/01/30 00:58:20;;;;;;;19.65;10.52;;;6.60;99.90;;;;;;5055891;28;20029;-72
2023/01/30 01:00:46;;;;;;;10.60;3.95;;;6.70;99.90;;;;;;5054952;28;20063;-72
2023/01/30 01:03:12;;;;;;;20.75;6.68;;;6.70;99.90;;;;;;5054621;28;20028;-72
2023/01/30 01:05:37;;;;;;;21.20;10.35;;;6.70;99.90;;;;;;5056020;28;20067;-72
2023/01/30 01:08:04;;;;;;;18.38;8.82;;;6.70;99.90;;;;;;5055448;28;20033;-72
2023/01/30 01:10:30;;;;;;;13.07;5.82;;;6.70;99.90;;;;;;5055890;28;20021;-72
2023/01/30 01:12:56;;;;;;;14.27;6.45;;;6.70;99.90;;;;;;5054829;28;20029;-73
2023/01/30 01:15:23;;;;;;;24.90;9.90;;;6.70;99.90;;;;;;5055856;28;20710;-72
2023/01/30 01:17:49;;;;;;;22.38;9.77;;;6.70;99.90;;;;;;5055635;28;20024;-72
2023/01/30 01:20:17;;;;;;;13.02;8.10;;;6.70;99.90;;;;;;5055695;28;20027;-72
2023/01/30 01:22:43;;;;;;;22.05;9.27;;;6.70;99.90;;;;;;5054365;28;20021;-72
2023/01/30 01:25:09;;;;;;;18.63;7.93;;;6.80;99.90;;;;;;5055503;28;20029;-72
2023/01/30 01:27:36;;;;;;;22.95;8.27;;;6.70;99.90;;;;;;5055642;28;20025;-72
2023/01/30 01:30:02;;;;;;;22.80;10.45;;;6.80;99.90;;;;;;5054098;28;20473;-72
2023/01/30 01:32:28;;;;;;;28.88;5.07;;;6.80;99.90;;;;;;5054287;28;20036;-71
2023/01/30 01:34:54;;;;;;;14.52;7.05;;;6.80;99.90;;;;;;5053898;28;20481;-72
2023/01/30 01:37:19;;;;;;;7.97;6.18;;;6.80;99.90;;;;;;5055450;28;20044;-72
2023/01/30 01:42:34;;;;;;;5.60;3.80;;;6.80;99.90;;;;;;5055424;28;20041;-72
2023/01/30 01:45:12;;;;;;;9.23;6.60;;;6.90;99.90;;;;;;5055020;28;20078;-72
2023/01/30 01:48:11;;;;;;;24.77;8.57;;;6.90;99.90;;;;;;5053777;28;20040;-72
2023/01/30 01:50:52;;;;;;;29.27;11.32;;;6.90;99.90;;;;;;5054458;28;20397;-72
2023/01/30 01:53:23;;;;;;;19.63;8.40;;;6.90;99.90;;;;;;5053979;28;20044;-72
2023/01/30 01:55:52;;;;;;;9.35;5.72;;;6.90;99.90;;;;;;5054620;28;20025;-72
2023/01/30 01:58:27;;;;;;;12.45;7.10;;;6.90;99.90;;;;;;5053905;28;20021;-72
2023/01/30 02:00:57;;;;;;;12.35;5.00;;;6.90;99.90;;;;;;5054839;28;20051;-72
2023/01/30 02:03:26;;;;;;;13.23;8.13;;;6.90;99.90;;;;;;5052833;28;20025;-72
2023/01/30 02:05:56;;;;;;;30.35;11.13;;;7.00;99.90;;;;;;5052815;28;20021;-72
2023/01/30 02:08:38;;;;;;;7.75;5.00;;;6.90;99.90;;;;;;5055114;28;20029;-72
2023/01/30 02:11:04;;;;;;;16.52;6.32;;;6.90;99.90;;;;;;5041321;28;20028;-72
2023/01/30 02:13:31;;;;;;;17.23;5.53;;;6.90;99.90;;;;;;5054902;28;20029;-72
2023/01/30 02:15:59;;;;;;;6.72;4.38;;;6.90;99.90;;;;;;5053386;28;20013;-72
2023/01/30 02:18:27;;;;;;;12.80;5.88;;;6.90;99.90;;;;;;5053004;28;20040;-72
2023/01/30 02:21:24;;;;;;;13.48;6.88;;;6.80;99.90;;;;;;5054467;28;20037;-73
2023/01/30 02:24:08;;;;;;;14.02;8.35;;;6.90;99.90;;;;;;5036818;28;20175;-72
2023/01/30 02:26:46;;;;;;;13.63;5.82;;;6.80;99.90;;;;;;5037869;28;20077;-72
2023/01/30 02:29:30;;;;;;;20.65;8.20;;;6.80;99.90;;;;;;5063990;28;20547;-72
2023/01/30 02:32:01;;;;;;;10.85;5.70;;;6.80;99.90;;;;;;5053067;28;20081;-72
2023/01/30 02:34:32;;;;;;;8.25;5.28;;;6.80;99.90;;;;;;5053914;28;20032;-72
2023/01/30 02:37:31;;;;;;;25.85;7.35;;;6.80;99.90;;;;;;5052759;28;20025;-72
2023/01/30 02:40:16;;;;;;;23.35;9.02;;;6.80;99.90;;;;;;5054376;28;20028;-72
2023/01/30 02:43:01;;;;;;;18.63;7.68;;;6.80;99.90;;;;;;5052785;28;20029;-71
2023/01/30 02:45:35;;;;;;;8.38;5.18;;;6.90;99.90;;;;;;5052690;28;20033;-72
2023/01/30 02:48:23;;;;;;;6.78;4.30;;;6.80;99.90;;;;;;5053561;28;20039;-72
2023/01/30 02:51:04;;;;;;;8.18;4.93;;;6.90;99.90;;;;;;5052661;28;20474;-72
2023/01/30 02:53:34;;;;;;;12.27;7.60;;;6.80;99.90;;;;;;5054059;28;20095;-72
2023/01/30 02:56:01;;;;;;;10.90;5.72;;;6.90;99.90;;;;;;5052421;28;20040;-72
2023/01/30 02:58:41;;;;;;;8.00;3.47;;;6.90;99.90;;;;;;5052835;28;20021;-72
2023/01/30 03:01:10;;;;;;;3.58;2.97;;;6.90;99.90;;;;;;5036092;28;20068;-72
2023/01/30 03:03:46;;;;;;;36.50;7.03;;;7.00;99.90;;;;;;5052366;28;20048;-72
2023/01/30 03:06:23;;;;;;;10.70;6.28;;;7.00;99.90;;;;;;5052285;28;20041;-72
2023/01/30 03:09:08;;;;;;;9.68;5.20;;;6.90;99.90;;;;;;5052342;28;20503;-72
2023/01/30 03:11:56;;;;;;;11.45;5.72;;;7.00;99.90;;;;;;5052217;28;20025;-72
2023/01/30 03:14:28;;;;;;;5.95;3.88;;;6.90;99.90;;;;;;5052292;28;20029;-72
2023/01/30 03:16:57;;;;;;;10.05;5.05;;;6.90;99.90;;;;;;5051581;28;20017;-72
2023/01/30 03:19:25;;;;;;;10.60;6.80;;;6.80;99.90;;;;;;5053676;28;20386;-72
2023/01/30 03:21:51;;;;;;;4.25;3.10;;;6.80;99.90;;;;;;5053507;28;20131;-72
2023/01/30 03:24:17;;;;;;;14.93;7.45;;;6.90;99.90;;;;;;5053628;28;20484;-71
2023/01/30 03:26:47;;;;;;;8.45;4.13;;;6.90;99.90;;;;;;5051896;28;20090;-72
2023/01/30 03:29:13;;;;;;;9.65;4.93;;;6.90;99.90;;;;;;5052130;28;20021;-72
2023/01/30 03:31:39;;;;;;;15.75;4.80;;;7.00;99.90;;;;;;5051820;28;20040;-72
2023/01/30 03:34:06;;;;;;;2.95;1.60;;;7.00;99.90;;;;;;5051819;28;20051;-72
2023/01/30 03:36:32;;;;;;;11.52;3.88;;;7.00;99.90;;;;;;5051736;28;20024;-72
2023/01/30 03:38:58;;;;;;;15.70;4.57;;;7.00;99.90;;;;;;5051693;28;20521;-72
2023/01/30 03:41:24;;;;;;;13.30;4.20;;;7.00;99.90;;;;;;5053065;28;20112;-72
2023/01/30 03:43:50;;;;;;;6.97;2.70;;;7.00;99.90;;;;;;5051852;28;20119;-72
2023/01/30 03:46:16;;;;;;;34.95;3.65;;;7.00;99.90;;;;;;5051150;28;20037;-72
2023/01/30 03:48:42;;;;;;;10.93;4.28;;;7.00;99.90;;;;;;5051794;28;20032;-72
2023/01/30 03:51:11;;;;;;;10.20;5.35;;;7.00;99.90;;;;;;5051696;28;20029;-72
2023/01/30 03:53:36;;;;;;;5.65;4.43;;;7.10;99.90;;;;;;5052901;28;20028;-72
2023/01/30 03:56:04;;;;;;;8.88;4.57;;;7.00;99.90;;;;;;5051300;28;20083;-72
2023/01/30 03:58:32;;;;;;;9.27;5.05;;;7.00;99.90;;;;;;5051497;28;20115;-72
2023/01/30 04:01:07;;;;;;;13.05;5.05;;;7.10;99.90;;;;;;5051241;28;20060;-72
2023/01/30 04:03:33;;;;;;;8.30;5.28;;;7.10;99.90;;;;;;5052731;28;20416;-72
2023/01/30 04:05:59;;;;;;;38.15;8.95;;;7.10;99.90;;;;;;5051187;28;20041;-72
2023/01/30 04:08:25;;;;;;;8.82;4.35;;;7.10;99.90;;;;;;5051177;28;20386;-72
2023/01/30 04:10:51;;;;;;;16.38;9.65;;;7.10;99.90;;;;;;5051389;28;20024;-72
2023/01/30 04:13:17;;;;;;;3.03;1.98;;;7.10;99.90;;;;;;5051278;28;20078;-72
2023/01/30 04:15:43;;;;;;;13.57;3.75;;;7.20;99.90;;;;;;5051087;28;20029;-72
2023/01/30 04:18:38;;;;;;;11.27;5.97;;;7.20;99.90;;;;;;5047898;28;20532;-72
2023/01/30 04:21:17;;;;;;;9.32;5.05;;;7.20;99.90;;;;;;5045584;28;20033;-72
2023/01/30 04:23:43;;;;;;;15.07;8.13;;;7.30;99.90;;;;;;5051164;28;20020;-72
2023/01/30 04:26:10;;;;;;;8.57;4.38;;;7.20;99.90;;;;;;5051431;28;20080;-72
2023/01/30 04:28:39;;;;;;;9.38;6.22;;;7.30;99.90;;;;;;5054502;28;20020;-72
2023/01/30 04:31:06;;;;;;;11.68;3.90;;;7.30;99.90;;;;;;5056052;28;20033;-72
2023/01/30 04:33:35;;;;;;;11.63;4.47;;;7.30;99.90;;;;;;5056238;28;20033;-72
2023/01/30 04:36:03;;;;;;;6.85;4.10;;;7.30;99.90;;;;;;5055231;28;20026;-73
2023/01/30 04:38:31;;;;;;;14.48;5.95;;;7.30;99.90;;;;;;5055201;28;20037;-72
2023/01/30 04:40:57;;;;;;;7.82;3.30;;;7.30;99.90;;;;;;5055107;28;20025;-72
2023/01/30 04:43:27;;;;;;;3.95;2.70;;;7.40;99.90;;;;;;5054726;28;20130;-72
2023/01/30 04:46:31;;;;;;;15.45;5.65;;;7.40;99.90;;;;;;5040114;28;20049;-73
2023/01/30 04:48:57;;;;;;;4.15;1.92;;;7.40;99.90;;;;;;5054909;28;20113;-73
2023/01/30 04:51:22;;;;;;;5.47;3.67;;;7.40;99.90;;;;;;5055133;28;20033;-73
2023/01/30 04:53:48;;;;;;;8.18;4.13;;;7.50;99.90;;;;;;5038335;28;20021;-72
2023/01/30 04:56:14;;;;;;;4.38;1.85;;;7.50;99.90;;;;;;5054708;28;20099;-73
2023/01/30 04:58:40;;;;;;;14.25;5.35;;;7.50;99.90;;;;;;5054384;28;20477;-72
2023/01/30 05:01:24;;;;;;;6.75;3.72;;;7.50;99.90;;;;;;5054900;28;20083;-72
2023/01/30 05:03:52;;;;;;;11.52;3.15;;;7.50;99.90;;;;;;5056032;28;20029;-72
2023/01/30 05:06:18;;;;;;;10.73;3.42;;;7.50;99.90;;;;;;5055966;28;20028;-73
2023/01/30 05:08:47;;;;;;;5.90;4.43;;;7.60;99.90;;;;;;5055971;28;20465;-73
2023/01/30 05:11:13;;;;;;;25.35;6.75;;;7.60;99.90;;;;;;5055806;28;20485;-72
2023/01/30 05:13:39;;;;;;;7.85;3.08;;;7.60;99.90;;;;;;5055527;28;20056;-73
2023/01/30 05:16:04;;;;;;;12.27;3.17;;;7.70;99.90;;;;;;5055897;28;20102;-72
2023/01/30 05:18:30;;;;;;;13.43;4.72;;;7.70;99.90;;;;;;5055395;28;20056;-72
2023/01/30 05:21:04;;;;;;;13.20;3.70;;;7.70;99.90;;;;;;5055803;28;20029;-73
2023/01/30 05:23:30;;;;;;;13.65;3.33;;;7.70;99.90;;;;;;5055281;28;20124;-72
2023/01/30 05:25:56;;;;;;;4.15;2.42;;;7.70;99.90;;;;;;5055763;28;20104;-72
2023/01/30 05:28:21;;;;;;;0.30;0.30;;;7.70;99.90;;;;;;5055368;28;20451;-72
2023/01/30 05:30:47;;;;;;;5.03;2.60;;;7.80;99.90;;;;;;5055568;28;20476;-72
2023/01/30 05:33:13;;;;;;;26.35;2.60;;;7.80;99.90;;;;;;5055401;28;20041;-72
2023/01/30 05:35:48;;;;;;;24.58;4.50;;;7.80;99.90;;;;;;5055372;28;20020;-72
2023/01/30 05:38:14;;;;;;;7.68;2.35;;;7.80;99.90;;;;;;5055124;28;20033;-73
2023/01/30 05:40:40;;;;;;;8.15;3.28;;;7.80;99.90;;;;;;5055143;28;20461;-72
2023/01/30 05:43:06;;;;;;;4.18;2.83;;;7.80;99.90;;;;;;5055299;28;20029;-72
2023/01/30 05:45:32;;;;;;;4.03;2.22;;;7.90;99.90;;;;;;5054726;28;20030;-73
2023/01/30 05:47:57;;;;;;;4.93;1.95;;;7.90;99.90;;;;;;5055308;28;20021;-72
2023/01/30 05:50:23;;;;;;;4.43;2.30;;;7.90;99.90;;;;;;5055128;28;20042;-73
2023/01/30 05:52:49;;;;;;;1.88;1.55;;;7.90;99.90;;;;;;5054929;28;20025;-73
2023/01/30 05:55:15;;;;;;;7.47;1.83;;;8.00;99.90;;;;;;5055110;28;20029;-73
2023/01/30 05:57:41;;;;;;;13.95;2.28;;;8.00;99.90;;;;;;5054671;28;20082;-73
2023/01/30 06:00:09;;;;;;;7.15;2.92;;;8.00;99.90;;;;;;5053667;28;20487;-72
2023/01/30 06:02:38;;;;;;;4.07;1.33;;;8.10;99.90;;;;;;5054919;28;20033;-73
2023/01/30 06:05:04;;;;;;;10.05;1.60;;;8.10;99.90;;;;;;5053560;28;20031;-72
2023/01/30 06:07:31;;;;;;;2.65;1.52;;;8.00;99.90;;;;;;5055083;28;20114;-73
2023/01/30 06:09:56;;;;;;;9.90;2.53;;;8.00;99.90;;;;;;5054593;28;20017;-72
2023/01/30 06:12:22;;;;;;;2.67;1.25;;;8.10;99.90;;;;;;5054634;28;20035;-72
2023/01/30 06:14:48;;;;;;;3.17;1.73;;;8.10;99.90;;;;;;5054564;28;20469;-73
2023/01/30 06:17:13;;;;;;;7.30;1.45;;;8.10;99.90;;;;;;5054766;28;20116;-72
2023/01/30 06:19:39;;;;;;;2.85;1.50;;;8.10;99.90;;;;;;5054429;28;20025;-73
2023/01/30 06:22:05;;;;;;;7.93;4.22;;;8.00;99.90;;;;;;5054434;28;20473;-73
2023/01/30 06:24:31;;;;;;;6.15;2.08;;;8.00;99.90;;;;;;5054590;28;20070;-72
2023/01/30 06:26:58;;;;;;;6.88;2.35;;;8.00;99.90;;;;;;5054070;28;20400;-72
2023/01/30 06:29:24;;;;;;;9.98;2.05;;;8.00;99.90;;;;;;5054498;28;20033;-72
2023/01/30 06:31:49;;;;;;;4.80;2.28;;;7.90;99.90;;;;;;5054069;28;20021;-72
2023/01/30 06:34:15;;;;;;;5.25;1.63;;;7.90;99.90;;;;;;5054472;28;20056;-72
2023/01/30 06:36:42;;;;;;;7.88;1.92;;;7.90;99.90;;;;;;5053814;28;20041;-72
2023/01/30 06:39:08;;;;;;;1.52;0.95;;;8.00;99.90;;;;;;5054012;28;20028;-72
2023/01/30 06:41:34;;;;;;;3.58;1.25;;;8.00;99.90;;;;;;5053615;28;20416;-72
2023/01/30 06:44:00;;;;;;;6.75;1.20;;;7.90;99.90;;;;;;5054087;28;20031;-72
2023/01/30 06:46:26;;;;;;;4.72;1.08;;;7.90;99.90;;;;;;5054142;28;20138;-72
2023/01/30 06:48:52;;;;;;;6.65;1.00;;;7.80;99.90;;;;;;5053945;28;20901;-72
2023/01/30 06:51:17;;;;;;;0.22;0.22;;;7.70;99.90;;;;;;5052059;28;20112;-72
2023/01/30 06:53:43;;;;;;;0.88;0.80;;;7.70;99.90;;;;;;5054124;28;20021;-72
2023/01/30 06:56:09;;;;;;;2.28;1.42;;;7.70;99.90;;;;;;5052141;28;20037;-72
2023/01/30 06:58:35;;;;;;;5.13;0.90;;;7.60;99.90;;;;;;5054045;28;20029;-73
2023/01/30 07:01:01;;;;;;;16.33;1.30;;;7.50;99.90;;;;;;5052391;28;20037;-73
2023/01/30 07:03:27;;;;;;;0.10;0.10;;;7.50;99.90;;;;;;5053655;28;20025;-72
2023/01/30 07:05:52;;;;;;;1.17;0.82;;;7.50;99.90;;;;;;5054478;28;20106;-72
2023/01/30 07:08:19;;;;;;;9.70;1.40;;;7.50;99.90;;;;;;5053233;28;20037;-72
2023/01/30 07:10:44;;;;;;;1.10;1.10;;;7.50;99.90;;;;;;5053619;28;20465;-73
2023/01/30 07:13:11;;;;;;;2.30;1.00;;;7.40;99.90;;;;;;5052998;28;20112;-73
2023/01/30 07:15:37;;;;;;;0.77;0.60;;;7.40;99.90;;;;;;5046134;28;20033;-73
2023/01/30 07:18:02;;;;;;;1.52;1.30;;;7.40;99.90;;;;;;5044135;28;20773;-72
2023/01/30 07:20:30;;;;;;;7.97;0.55;;;7.30;99.90;;;;;;5047397;28;20048;-72
2023/01/30 07:22:56;;;;;;;1.88;1.38;;;7.30;99.90;;;;;;5033424;28;20489;-72
2023/01/30 07:25:23;;;;;;;0.50;0.50;;;7.30;99.90;;;;;;5038232;28;20036;-72
2023/01/30 07:27:54;;;;;;;2.38;0.60;;;7.30;99.90;;;;;;5047543;28;20036;-72
2023/01/30 07:30:20;;;;;;;1.75;1.52;;;7.30;99.90;;;;;;5049022;28;20025;-72
2023/01/30 07:32:54;;;;;;;4.68;4.03;;;7.30;99.90;;;;;;5049633;28;20460;-72
2023/01/30 07:35:24;;;;;;;9.43;1.55;;;7.20;99.90;;;;;;5047867;28;20136;-72
2023/01/30 07:37:50;;;;;;;0.98;0.75;;;7.20;99.90;;;;;;5048517;28;20033;-72
2023/01/30 07:40:18;;;;;;;0.57;0.57;;;7.20;99.90;;;;;;5049078;28;20116;-72
2023/01/30 07:42:53;;;;;;;6.30;0.88;;;7.10;99.90;;;;;;5048174;28;20044;-72
2023/01/30 07:45:19;;;;;;;8.32;2.28;;;7.20;99.90;;;;;;5048174;28;20118;-72
2023/01/30 07:47:45;;;;;;;0.95;0.93;;;7.20;99.90;;;;;;5048737;28;20059;-73
2023/01/30 07:50:11;;;;;;;6.22;2.17;;;7.10;99.90;;;;;;5048662;28;20481;-72
2023/01/30 07:52:37;;;;;;;1.95;1.83;;;7.10;99.90;;;;;;5047506;28;20102;-72
2023/01/30 07:55:03;;;;;;;16.08;1.67;;;7.10;99.90;;;;;;5049084;28;20112;-72
2023/01/30 07:57:29;;;;;;;5.22;1.40;;;7.10;99.90;;;;;;5047931;28;20116;-72
2023/01/30 07:59:55;;;;;;;5.07;0.65;;;7.10;99.90;;;;;;5048937;28;20480;-72
2023/01/30 08:02:20;;;;;;;2.45;0.70;;;7.10;99.90;;;;;;5047357;28;20033;-72
2023/01/30 08:04:47;;;;;;;2.47;0.80;;;7.10;99.90;;;;;;5049353;28;20491;-72
2023/01/30 08:07:13;;;;;;;3.42;0.82;;;7.20;99.90;;;;;;5048408;28;20037;-72
2023/01/30 08:09:39;;;;;;;1.35;0.98;;;7.20;99.90;;;;;;5048513;28;20036;-72
2023/01/30 08:12:04;;;;;;;1.27;1.17;;;7.20;99.90;;;;;;5048071;28;20095;-72
2023/01/30 08:14:30;;;;;;;7.47;1.63;;;7.10;99.90;;;;;;5048394;28;20020;-72
2023/01/30 08:16:56;;;;;;;0.32;0.30;;;7.20;99.90;;;;;;5039741;28;20056;-72
2023/01/30 08:19:22;;;;;;;7.38;0.60;;;7.20;99.90;;;;;;5047404;28;20035;-72
2023/01/30 08:21:48;;;;;;;0.35;0.35;;;7.10;99.90;;;;;;5048117;28;20448;-72
2023/01/30 08:24:13;;;;;;;0.65;0.65;;;7.10;99.90;;;;;;5048934;28;20572;-72
2023/01/30 08:26:39;;;;;;;5.88;1.10;;;7.20;99.90;;;;;;5039784;28;20128;-72
2023/01/30 08:29:05;;;;;;;4.70;0.63;;;7.30;99.90;;;;;;5048507;28;20039;-72
2023/01/30 08:31:31;;;;;;;1.85;1.13;;;7.30;99.90;;;;;;5048586;28;20143;-72
2023/01/30 08:33:57;;;;;;;3.83;0.70;;;7.30;99.90;;;;;;5048269;28;20017;-72
2023/01/30 08:36:22;;;;;;;0.50;0.45;;;7.40;99.90;;;;;;5048550;28;20385;-72
2023/01/30 08:38:48;;;;;;;4.00;1.73;;;7.40;99.90;;;;;;5048089;28;20021;-72
2023/01/30 08:41:14;;;;;;;20.35;1.58;;;7.40;99.90;;;;;;5048866;28;20032;-72
2023/01/30 08:43:39;;;;;;;2.42;0.93;;;7.50;99.90;;;;;;5048445;28;20025;-72
2023/01/30 08:46:05;;;;;;;6.43;1.67;;;7.50;99.90;;;;;;5048535;28;20033;-72
2023/01/30 08:48:31;;;;;;;2.45;1.02;;;7.50;99.90;;;;;;5046710;28;20028;-72
2023/01/30 08:50:57;;;;;;;13.32;1.88;;;7.60;99.90;;;;;;5047976;28;20029;-72
2023/01/30 08:53:23;;;;;;;6.25;0.57;;;7.60;99.90;;;;;;5047297;28;20036;-72
2023/01/30 08:55:51;;;;;;;2.45;1.20;;;7.60;99.90;;;;;;5048272;28;20029;-72
2023/01/30 08:58:17;;;;;;;0.57;0.43;;;7.60;99.90;;;;;;5047453;28;20024;-72
2023/01/30 09:00:43;;;;;;;20.25;4.22;;;7.70;99.90;;;;;;5048205;28;20017;-72
2023/01/30 09:03:09;;;;;;;14.65;1.15;;;7.70;99.90;;;;;;5045729;28;20017;-72
2023/01/30 09:05:35;;;;;;;11.48;1.20;;;7.70;99.90;;;;;;5043183;28;20732;-72
2023/01/30 09:08:01;;;;;;;0.20;0.20;;;7.70;99.90;;;;;;5040681;28;20068;-72
2023/01/30 09:10:26;;;;;;;6.68;1.35;;;7.80;99.90;;;;;;5047595;28;20112;-72
2023/01/30 09:12:52;;;;;;;10.20;2.30;;;7.80;99.90;;;;;;5035987;28;20116;-72
2023/01/30 09:15:18;;;;;;;0.43;0.38;;;7.80;99.90;;;;;;5050091;28;20036;-72
2023/01/30 09:17:43;;;;;;;16.30;1.55;;;7.90;99.90;;;;;;5052370;28;20029;-72
2023/01/30 09:20:10;;;;;;;7.75;2.03;;;7.90;99.90;;;;;;5050950;28;20038;-72
2023/01/30 09:22:36;;;;;;;11.45;1.23;;;8.00;99.90;;;;;;5051600;28;20017;-72
2023/01/30 09:25:03;;;;;;;12.60;0.63;;;8.10;99.90;;;;;;5052122;28;20021;-72
2023/01/30 09:27:29;;;;;;;7.13;1.63;;;8.20;99.90;;;;;;5041165;28;20036;-72
2023/01/30 09:29:55;;;;;;;4.68;1.42;;;8.30;99.90;;;;;;5051446;28;20087;-72
2023/01/30 09:32:21;;;;;;;6.95;3.45;;;8.30;99.90;;;;;;5051919;28;20029;-72
2023/01/30 09:34:47;;;;;;;1.13;0.85;;;8.40;99.90;;;;;;5051031;28;20033;-72
2023/01/30 09:37:12;;;;;;;18.27;2.25;;;8.40;99.90;;;;;;5039262;28;20033;-72
2023/01/30 09:39:38;;;;;;;2.05;1.10;;;8.60;99.90;;;;;;5046050;28;20029;-73
2023/01/30 09:42:04;;;;;;;8.50;1.20;;;8.70;99.90;;;;;;5047825;28;20029;-72
2023/01/30 09:44:48;;;;;;;5.10;1.10;;;8.70;99.90;;;;;;5058327;28;20021;-73
2023/01/30 09:47:38;;;;;;;9.45;1.70;;;8.80;99.90;;;;;;5042607;28;20550;-72
2023/01/30 09:50:22;;;;;;;5.10;1.83;;;8.80;99.90;;;;;;5038298;28;20033;-72
2023/01/30 09:52:53;;;;;;;4.53;1.20;;;8.80;99.90;;;;;;5049559;28;20021;-72
2023/01/30 09:55:28;;;;;;;4.90;1.50;;;9.00;99.90;;;;;;5051274;28;20118;-72
2023/01/30 09:57:55;;;;;;;14.10;2.47;;;9.20;99.90;;;;;;5051685;28;20029;-72
2023/01/30 10:00:27;;;;;;;1.17;0.52;;;9.20;99.90;;;;;;5050463;28;20469;-72
2023/01/30 10:03:07;;;;;;;4.55;1.58;;;9.20;99.90;;;;;;5050348;28;20385;-72
2023/01/30 10:05:53;;;;;;;19.70;1.02;;;9.10;99.90;;;;;;5049321;28;20025;-72
2023/01/30 10:08:18;;;;;;;19.10;1.23;;;9.40;99.90;;;;;;5051403;28;20021;-72
2023/01/30 10:10:50;;;;;;;12.52;2.80;;;9.40;99.90;;;;;;5049861;28;20473;-72
2023/01/30 10:13:45;;;;;;;30.05;2.53;;;9.30;99.90;;;;;;5041295;28;20037;-72
2023/01/30 10:16:26;;;;;;;24.48;3.30;;;9.50;99.90;;;;;;5036922;28;20057;-72
2023/01/30 10:19:03;;;;;;;16.15;0.73;;;9.60;99.90;;;;;;5049845;28;20029;-73
2023/01/30 10:21:50;;;;;;;2.55;1.08;;;9.70;99.90;;;;;;5049934;28;20036;-72
2023/01/30 10:24:43;;;;;;;5.68;2.33;;;9.90;99.90;;;;;;5050401;28;20052;-72
2023/01/30 10:27:13;;;;;;;8.65;2.55;;;10.00;99.90;;;;;;5048678;28;20481;-72
2023/01/30 10:29:43;;;;;;;1.63;0.80;;;10.10;99.90;;;;;;5050319;28;20377;-72
2023/01/30 10:32:12;;;;;;;6.15;2.35;;;9.90;99.90;;;;;;5049066;28;20511;-73
2023/01/30 10:34:40;;;;;;;5.30;2.08;;;10.00;99.90;;;;;;5042999;28;20442;-72
2023/01/30 10:37:12;;;;;;;6.18;1.75;;;9.90;99.90;;;;;;5049662;28;20029;-72
2023/01/30 10:39:40;;;;;;;9.98;1.83;;;10.10;99.90;;;;;;5048555;28;20029;-73
2023/01/30 10:42:49;;;;;;;9.18;1.30;;;10.30;99.90;;;;;;5048848;28;20499;-72
2023/01/30 10:45:25;;;;;;;6.22;1.23;;;10.30;99.90;;;;;;5026735;28;20045;-73
2023/01/30 10:48:18;;;;;;;16.77;1.85;;;10.40;99.90;;;;;;5049510;28;20064;-72
2023/01/30 10:50:55;;;;;;;7.97;2.63;;;10.30;99.90;;;;;;5050057;28;20048;-73
2023/01/30 10:53:25;;;;;;;10.45;1.50;;;10.20;99.90;;;;;;5051195;28;20033;-73
2023/01/30 10:55:59;;;;;;;10.02;1.85;;;10.00;99.90;;;;;;5047713;28;20099;-74
2023/01/30 10:59:03;;;;;;;5.30;1.73;;;9.90;99.90;;;;;;5038689;28;20056;-72
2023/01/30 11:01:42;;;;;;;4.78;1.05;;;10.00;99.90;;;;;;5049773;28;20098;-73
2023/01/30 11:04:38;;;;;;;0.52;0.52;;;10.30;99.90;;;;;;5049708;28;20397;-73
2023/01/30 11:07:05;;;;;;;12.93;1.92;;;10.40;99.90;;;;;;5038495;28;20139;-72
2023/01/30 11:09:39;;;;;;;5.38;0.80;;;10.70;99.90;;;;;;5049435;28;20025;-72
2023/01/30 11:12:05;;;;;;;13.00;2.05;;;10.70;99.90;;;;;;5038561;28;20115;-72
2023/01/30 11:14:53;;;;;;;7.07;2.05;;;10.50;99.90;;;;;;5049631;28;20096;-74
2023/01/30 11:17:21;;;;;;;6.47;0.75;;;10.20;99.90;;;;;;5038595;28;20036;-73
2023/01/30 11:19:55;;;;;;;6.47;2.03;;;10.40;99.90;;;;;;5049545;28;20041;-73
2023/01/30 11:22:25;;;;;;;12.00;2.22;;;10.40;99.90;;;;;;5049879;28;20038;-73
2023/01/30 11:25:01;;;;;;;5.78;1.58;;;10.10;99.90;;;;;;5049205;28;20020;-72
2023/01/30 11:27:31;;;;;;;9.68;3.33;;;9.80;99.90;;;;;;5049351;28;20029;-74
2023/01/30 11:30:05;;;;;;;16.30;2.70;;;10.10;99.90;;;;;;5048394;28;20052;-73
2023/01/30 11:32:31;;;;;;;14.45;1.98;;;10.20;99.90;;;;;;5048638;28;20037;-74
2023/01/30 11:35:15;;;;;;;12.20;1.80;;;10.00;99.90;;;;;;5046600;28;20025;-73
2023/01/30 11:37:42;;;;;;;6.95;2.33;;;9.90;99.90;;;;;;5052337;28;20029;-73
2023/01/30 11:40:19;;;;;;;0.47;0.45;;;9.70;99.90;;;;;;5052714;28;20029;-75
2023/01/30 11:42:48;;;;;;;12.70;1.92;;;9.60;99.90;;;;;;5052446;28;20036;-75
2023/01/30 11:45:15;;;;;;;7.72;0.75;;;9.60;99.90;;;;;;5051687;28;20083;-75
2023/01/30 11:47:52;;;;;;;0.20;0.17;;;9.80;99.90;;;;;;5052400;28;20044;-75
2023/01/30 11:50:20;;;;;;;14.95;2.25;;;10.10;99.90;;;;;;5051730;28;20037;-75
2023/01/30 11:52:47;;;;;;;19.33;2.38;;;10.60;99.90;;;;;;5052618;28;20021;-75
2023/01/30 11:55:17;;;;;;;19.95;3.38;;;10.40;99.90;;;;;;5052499;28;20028;-74
2023/01/30 11:57:55;;;;;;;5.53;2.85;;;10.10;99.90;;;;;;5052568;28;20044;-75
2023/01/30 12:00:36;;;;;;;10.05;1.45;;;10.60;99.90;;;;;;5052523;28;20456;-75
2023/01/30 12:03:05;;;;;;;0.40;0.40;;;11.00;99.90;;;;;;5051126;28;20452;-75
2023/01/30 12:05:33;;;;;;;19.92;2.60;;;11.60;99.90;;;;;;5051379;28;20388;-75
2023/01/30 12:08:20;;;;;;;4.32;1.02;;;11.60;99.90;;;;;;5052498;28;20145;-75
2023/01/30 12:11:00;;;;;;;6.50;1.58;;;11.80;99.90;;;;;;5052620;28;20531;-75
2023/01/30 12:13:39;;;;;;;4.93;1.20;;;11.40;99.90;;;;;;5050576;28;20083;-75
2023/01/30 12:16:22;;;;;;;3.05;1.00;;;11.20;99.90;;;;;;5051312;28;20422;-75
2023/01/30 12:19:17;;;;;;;0.40;0.40;;;11.10;99.90;;;;;;5052806;28;20052;-75
2023/01/30 12:22:05;;;;;;;2.53;0.93;;;10.90;99.90;;;;;;5052413;28;20432;-74
2023/01/30 12:24:38;;;;;;;6.43;1.00;;;10.80;99.90;;;;;;5052440;28;20037;-74
2023/01/30 12:27:12;;;;;;;12.70;1.02;;;11.10;99.90;;;;;;5052505;28;20179;-75
2023/01/30 12:30:02;;;;;;;4.05;0.85;;;11.10;99.90;;;;;;5052231;28;20033;-74
2023/01/30 12:32:33;;;;;;;11.65;1.17;;;11.30;99.90;;;;;;5052664;28;20033;-75
2023/01/30 12:34:59;;;;;;;9.52;1.20;;;10.60;99.90;;;;;;5052164;28;20150;-75
2023/01/30 12:37:59;;;;;;;10.50;2.50;;;10.70;99.90;;;;;;5051092;28;20439;-75
2023/01/30 12:40:43;;;;;;;4.90;1.35;;;11.00;99.90;;;;;;5052490;28;20485;-75
2023/01/30 12:43:23;;;;;;;16.65;1.65;;;11.80;99.90;;;;;;5052048;28;20473;-75
2023/01/30 12:46:35;;;;;;;9.30;2.30;;;11.50;99.90;;;;;;5051044;28;20068;-75
2023/01/30 12:49:19;;;;;;;7.97;1.50;;;10.80;99.90;;;;;;5015300;28;20037;-74
2023/01/30 12:51:54;;;;;;;5.78;1.45;;;11.30;99.90;;;;;;5054715;28;20041;-75
2023/01/30 12:54:50;;;;;;;2.20;0.32;;;10.80;99.90;;;;;;5056098;28;20029;-75
2023/01/30 12:57:29;;;;;;;4.22;1.42;;;10.90;99.90;;;;;;5055945;28;20029;-74
2023/01/30 13:00:01;;;;;;;6.30;2.00;;;10.60;99.90;;;;;;5056016;28;20029;-74
2023/01/30 13:02:41;;;;;;;0.52;0.50;;;10.60;99.90;;;;;;5056291;28;20115;-74
2023/01/30 13:05:33;;;;;;;10.48;2.40;;;11.10;99.90;;;;;;5055964;28;20025;-74
2023/01/30 13:08:19;;;;;;;0.73;0.30;;;11.20;99.90;;;;;;5055131;28;20083;-74
2023/01/30 13:10:58;;;;;;;8.32;1.42;;;11.10;99.90;;;;;;5054693;28;20031;-74
2023/01/30 13:13:34;;;;;;;4.50;1.25;;;10.90;99.90;;;;;;5055565;28;20116;-74
2023/01/30 13:16:24;;;;;;;1.48;1.10;;;11.40;99.90;;;;;;5055819;28;20079;-75
2023/01/30 13:18:59;;;;;;;1.75;0.55;;;12.20;99.90;;;;;;5056170;28;20478;-75